createdAt,value
2022-11-13T00:04:26.048Z,3.86
2022-11-13T00:10:05.569Z,3.96
2022-11-13T00:15:45.055Z,4.02
2022-11-13T00:21:25.023Z,4.13
2022-11-13T00:27:04.633Z,4.11
2022-11-13T00:32:43.807Z,3.88
2022-11-13T00:38:22.965Z,3.43
2022-11-13T00:44:04.059Z,3.45
2022-11-13T00:49:43.371Z,3.43
2022-11-13T00:55:22.717Z,3.15
2022-11-13T01:01:06.514Z,2.83
2022-11-13T01:06:46.248Z,2.64
2022-11-13T01:12:25.958Z,2.74
2022-11-13T01:18:05.413Z,3.13
2022-11-13T01:23:44.603Z,3.45
2022-11-13T01:29:24.131Z,3.63
2022-11-13T01:35:03.712Z,3.66
2022-11-13T01:40:46.957Z,3.69
2022-11-13T01:46:27.262Z,3.63
2022-11-13T01:52:08.551Z,3.70
2022-11-13T01:57:48.752Z,3.67
2022-11-13T02:03:28.194Z,3.55
2022-11-13T02:09:08.240Z,3.68
2022-11-13T02:14:50.058Z,3.93
2022-11-13T02:20:40.049Z,3.66
2022-11-13T02:26:21.111Z,3.70
2022-11-13T02:32:00.496Z,3.56
2022-11-13T02:37:39.952Z,3.50
2022-11-13T02:43:19.446Z,3.53
2022-11-13T02:48:58.627Z,3.60
2022-11-13T02:54:37.813Z,3.53
2022-11-13T03:00:17.792Z,3.30
2022-11-13T03:05:56.928Z,3.40
2022-11-13T03:11:36.219Z,3.49
2022-11-13T03:17:15.291Z,3.49
2022-11-13T03:22:54.555Z,3.71
2022-11-13T03:28:34.685Z,3.48
2022-11-13T03:34:14.024Z,3.42
2022-11-13T03:39:53.377Z,3.52
2022-11-13T03:45:32.617Z,3.37
2022-11-13T03:51:11.862Z,3.03
2022-11-13T03:56:51.119Z,2.94
2022-11-13T04:02:30.367Z,3.11
2022-11-13T04:08:09.834Z,3.25
2022-11-13T04:13:49.271Z,3.13
2022-11-13T04:19:28.494Z,3.33
2022-11-13T04:25:07.908Z,3.14
2022-11-13T04:30:47.348Z,3.21
2022-11-13T04:36:26.407Z,3.10
2022-11-13T04:42:24.214Z,3.02
2022-11-13T04:48:03.780Z,2.92
2022-11-13T04:53:43.540Z,3.00
2022-11-13T04:59:23.173Z,3.21
2022-11-13T05:05:05.128Z,3.09
2022-11-13T05:10:44.644Z,2.89
2022-11-13T05:16:23.860Z,2.69
2022-11-13T05:22:03.542Z,2.52
2022-11-13T05:27:42.590Z,2.55
2022-11-13T05:33:21.866Z,2.53
2022-11-13T05:39:01.209Z,2.56
2022-11-13T05:44:40.356Z,2.37
2022-11-13T05:50:20.787Z,2.48
2022-11-13T05:56:08.186Z,2.72
2022-11-13T06:01:47.522Z,2.81
2022-11-13T06:07:27.163Z,3.00
2022-11-13T06:13:06.412Z,2.95
2022-11-13T06:18:46.253Z,2.57
2022-11-13T06:24:25.797Z,2.27
2022-11-13T06:30:05.478Z,2.46
2022-11-13T06:35:44.679Z,2.69
2022-11-13T06:41:25.154Z,2.74
2022-11-13T06:47:04.237Z,2.72
2022-11-13T06:52:43.606Z,2.82
2022-11-13T06:58:23.115Z,2.83
2022-11-13T07:04:02.472Z,2.90
2022-11-13T07:09:42.079Z,2.96
2022-11-13T07:15:21.481Z,2.92
2022-11-13T07:21:05.359Z,2.97
2022-11-13T07:26:44.508Z,3.09
2022-11-13T07:32:23.744Z,3.18
2022-11-13T07:38:03.121Z,3.38
2022-11-13T07:43:42.680Z,3.51
2022-11-13T07:49:22.151Z,3.56
2022-11-13T07:55:01.749Z,3.80
2022-11-13T08:00:41.195Z,3.87
2022-11-13T08:06:21.091Z,4.07
2022-11-13T08:12:00.485Z,4.17
2022-11-13T08:17:40.091Z,4.19
2022-11-13T08:23:19.299Z,4.11
2022-11-13T08:28:58.433Z,3.98
2022-11-13T08:34:37.721Z,4.13
2022-11-13T08:40:17.242Z,4.33
2022-11-13T08:45:56.847Z,4.62
2022-11-13T08:51:36.242Z,4.79
2022-11-13T08:57:15.588Z,5.02
2022-11-13T09:02:58.808Z,6.28
2022-11-13T09:08:38.361Z,6.09
2022-11-13T09:14:17.729Z,5.87
2022-11-13T09:20:02.197Z,5.72
2022-11-13T09:25:43.103Z,5.45
2022-11-13T09:31:22.336Z,5.42
2022-11-13T09:37:01.748Z,5.36
2022-11-13T09:42:41.686Z,5.30
2022-11-13T09:48:24.299Z,5.44
2022-11-13T09:54:07.851Z,5.45
2022-11-13T09:59:47.044Z,5.65
2022-11-13T10:05:26.605Z,5.74
2022-11-13T10:11:12.254Z,5.94
2022-11-13T10:16:55.987Z,6.05
2022-11-13T10:22:52.061Z,6.55
2022-11-13T10:34:33.247Z,7.29
2022-11-13T10:40:23.001Z,7.30
2022-11-13T10:46:04.221Z,7.49
2022-11-13T10:51:43.956Z,7.49
2022-11-13T10:57:34.505Z,7.01
2022-11-13T11:03:15.450Z,6.95
2022-11-13T11:09:04.973Z,6.94
2022-11-13T11:14:53.222Z,7.08
2022-11-13T11:20:50.975Z,7.27
2022-11-13T11:26:32.692Z,7.46
2022-11-13T11:32:15.987Z,7.59
2022-11-13T11:38:05.948Z,7.92
2022-11-13T11:43:51.757Z,8.12
2022-11-13T11:49:31.169Z,8.34
2022-11-13T11:55:28.733Z,8.74
2022-11-13T12:01:18.035Z,8.97
2022-11-13T12:06:57.399Z,9.05
2022-11-13T12:12:36.874Z,9.22
2022-11-13T12:18:36.900Z,9.50
2022-11-13T12:24:31.767Z,9.70
2022-11-13T12:30:18.835Z,9.78
2022-11-13T12:35:58.911Z,9.85
2022-11-13T12:41:44.317Z,9.83
2022-11-13T12:47:24.300Z,9.91
2022-11-13T12:53:05.261Z,9.84
2022-11-13T12:59:30.873Z,10.02
2022-11-13T13:05:07.550Z,9.97
2022-11-13T13:11:05.250Z,9.79
2022-11-13T13:16:44.403Z,9.64
2022-11-13T13:22:28.653Z,9.50
2022-11-13T13:28:07.808Z,9.48
2022-11-13T13:33:59.401Z,9.50
2022-11-13T13:39:38.803Z,9.55
2022-11-13T13:45:25.288Z,9.42
2022-11-13T13:51:10.765Z,9.34
2022-11-13T13:56:50.020Z,9.35
2022-11-13T14:02:29.643Z,9.35
2022-11-13T14:08:20.707Z,9.42
2022-11-13T14:14:29.115Z,9.58
2022-11-13T14:20:12.030Z,9.55
2022-11-13T14:25:51.977Z,9.35
2022-11-13T14:31:34.015Z,9.15
2022-11-13T14:37:19.143Z,9.11
2022-11-13T14:43:02.700Z,9.06
2022-11-13T14:48:51.813Z,8.93
2022-11-13T14:55:13.055Z,8.87
2022-11-13T15:00:36.242Z,8.86
2022-11-13T15:06:17.340Z,8.71
2022-11-13T15:11:57.320Z,8.61
2022-11-13T15:17:37.028Z,8.52
2022-11-13T15:23:17.172Z,8.47
2022-11-13T15:28:56.440Z,8.69
2022-11-13T15:34:35.784Z,8.60
2022-11-13T15:40:15.772Z,8.51
2022-11-13T15:45:55.826Z,8.66
2022-11-13T15:51:35.508Z,8.67
2022-11-13T15:57:20.075Z,8.44
2022-11-13T16:02:59.526Z,8.24
2022-11-13T16:08:39.382Z,8.08
2022-11-13T16:14:24.393Z,7.97
2022-11-13T16:20:07.530Z,7.81
2022-11-13T16:25:48.060Z,7.70
2022-11-13T16:31:27.488Z,7.63
2022-11-13T16:37:12.703Z,7.61
2022-11-13T16:42:52.934Z,8.35
2022-11-13T16:48:32.586Z,8.12
2022-11-13T16:54:12.395Z,7.86
2022-11-13T16:59:52.269Z,7.72
2022-11-13T17:05:31.840Z,7.52
2022-11-13T17:11:12.935Z,7.45
2022-11-13T17:16:52.493Z,7.42
2022-11-13T17:22:31.632Z,7.32
2022-11-13T17:28:11.197Z,7.20
2022-11-13T17:33:54.627Z,7.10
2022-11-13T17:39:33.960Z,7.06
2022-11-13T17:45:13.133Z,7.14
2022-11-13T17:50:56.111Z,7.15
2022-11-13T17:56:37.729Z,7.25
2022-11-13T18:02:17.339Z,7.25
2022-11-13T18:07:56.561Z,7.29
2022-11-13T18:13:36.356Z,7.32
2022-11-13T18:19:15.897Z,7.42
2022-11-13T18:24:57.282Z,7.49
2022-11-13T18:30:39.565Z,7.44
2022-11-13T18:36:19.524Z,7.53
2022-11-13T18:42:00.478Z,7.70
2022-11-13T18:47:40.401Z,7.75
2022-11-13T18:53:21.941Z,7.76
2022-11-13T18:59:02.066Z,7.47
2022-11-13T19:04:41.586Z,7.40
2022-11-13T19:10:20.777Z,7.43
2022-11-13T19:16:08.770Z,7.58
2022-11-13T19:21:48.206Z,7.39
2022-11-13T19:27:27.940Z,7.31
2022-11-13T19:33:07.849Z,7.25
2022-11-13T19:38:47.468Z,7.14
2022-11-13T19:44:27.865Z,7.09
2022-11-13T19:50:10.350Z,7.19
2022-11-13T19:55:56.302Z,7.07
2022-11-13T20:01:35.980Z,6.93
2022-11-13T20:07:15.845Z,6.81
2022-11-13T20:12:55.955Z,6.84
2022-11-13T20:18:36.109Z,6.76
2022-11-13T20:24:15.254Z,6.67
2022-11-13T20:29:54.898Z,6.62
2022-11-13T20:35:34.576Z,6.59
2022-11-13T20:41:13.899Z,6.58
2022-11-13T20:46:55.771Z,6.56
2022-11-13T20:52:38.757Z,6.53
2022-11-13T20:58:18.185Z,6.52
2022-11-13T21:03:59.651Z,6.54
2022-11-13T21:09:39.156Z,6.56
2022-11-13T21:15:19.343Z,6.55
2022-11-13T21:21:06.109Z,6.55
2022-11-13T21:26:47.765Z,6.61
2022-11-13T21:32:29.354Z,6.69
2022-11-13T21:38:08.686Z,6.66
2022-11-13T21:43:48.333Z,6.70
2022-11-13T21:49:27.652Z,6.68
2022-11-13T21:55:07.721Z,6.74
2022-11-13T22:00:47.136Z,6.70
2022-11-13T22:06:30.860Z,6.70
2022-11-13T22:12:10.802Z,6.70
2022-11-13T22:17:50.057Z,6.75
2022-11-13T22:23:29.345Z,6.80
2022-11-13T22:29:09.473Z,6.73
2022-11-13T22:34:48.900Z,6.64
2022-11-13T22:40:27.976Z,6.67
2022-11-13T22:46:08.771Z,6.80
2022-11-13T22:51:48.048Z,6.88
2022-11-13T22:57:27.225Z,6.83
2022-11-13T23:03:06.208Z,6.73
2022-11-13T23:08:46.808Z,6.61
2022-11-13T23:14:26.034Z,6.52
2022-11-13T23:20:05.423Z,6.40
2022-11-13T23:25:44.814Z,6.34
2022-11-13T23:31:24.609Z,6.35
2022-11-13T23:37:03.867Z,6.43
2022-11-13T23:42:54.605Z,6.47
2022-11-13T23:48:35.490Z,6.48
2022-11-13T23:54:15.107Z,6.42
2022-11-13T23:59:54.200Z,6.45
